Time;durP1;ratioP1;P1;durP2;ratioP2;P2;SDS_P1;SDS_P2;PMS_P1;PMS_P2;Temp;Humidity;BMP_temperature;BMP_pressure;BME280_temperature;BME280_humidity;BME280_pressure;Samples;Min_cycle;Max_cycle;Signal;HPM_P1;HPM_P2
2022/07/12 00:02:11;;;;;;;4.18;2.00;;;;;;;;;;4992706;28;20416;-74
2022/07/12 00:04:38;;;;;;;2.55;1.95;;;;;;;;;;4992669;28;20049;-74
2022/07/12 00:07:04;;;;;;;5.95;2.38;;;;;;;;;;4992511;28;20025;-74
2022/07/12 00:09:30;;;;;;;2.58;1.95;;;;;;;;;;5031420;28;20021;-74
2022/07/12 00:11:57;;;;;;;3.75;1.92;;;;;;;;;;5031870;28;20061;-74
2022/07/12 00:14:24;;;;;;;2.75;1.83;;;;;;;;;;5031901;28;20029;-74
2022/07/12 00:16:51;;;;;;;3.05;2.00;;;;;;;;;;5031359;28;20052;-74
2022/07/12 00:19:17;;;;;;;3.80;2.05;;;;;;;;;;5012383;28;20380;-74
2022/07/12 00:21:43;;;;;;;3.45;2.05;;;;;;;;;;5011945;28;20056;-74
2022/07/12 00:24:09;;;;;;;3.38;2.20;;;;;;;;;;5012231;28;20439;-74
2022/07/12 00:26:35;;;;;;;3.10;2.13;;;;;;;;;;5012092;28;20026;-74
2022/07/12 00:29:01;;;;;;;2.42;2.22;;;;;;;;;;5012193;28;20041;-74
2022/07/12 00:31:27;;;;;;;3.15;2.20;;;;;;;;;;5011911;28;20520;-74
2022/07/12 00:33:53;;;;;;;4.43;2.55;;;;;;;;;;5012032;28;20464;-74
2022/07/12 00:36:20;;;;;;;3.97;2.63;;;;;;;;;;5011875;28;20080;-74
2022/07/12 00:38:46;;;;;;;2.95;2.13;;;;;;;;;;5012084;28;20365;-74
2022/07/12 00:41:12;;;;;;;3.47;2.28;;;;;;;;;;5012022;28;20029;-74
2022/07/12 00:43:38;;;;;;;3.80;3.17;;;;;;;;;;5011958;28;20469;-74
2022/07/12 00:46:04;;;;;;;3.15;2.63;;;;;;;;;;5011538;28;20041;-74
2022/07/12 00:48:32;;;;;;;7.90;2.70;;;;;;;;;;5015610;28;20314;-74
2022/07/12 00:50:58;;;;;;;4.72;2.88;;;;;;;;;;5015486;28;20065;-74
2022/07/12 00:53:25;;;;;;;5.10;2.75;;;;;;;;;;5015655;28;20038;-74
2022/07/12 00:55:58;;;;;;;3.63;2.60;;;;;;;;;;5014219;28;20030;-74
2022/07/12 00:58:25;;;;;;;13.02;2.60;;;;;;;;;;5015616;28;20029;-74
2022/07/12 01:00:51;;;;;;;5.40;2.83;;;;;;;;;;5015374;28;20104;-74
2022/07/12 01:03:17;;;;;;;4.55;2.38;;;;;;;;;;5015447;28;20072;-74
2022/07/12 01:05:44;;;;;;;3.58;2.38;;;;;;;;;;5015335;28;20128;-74
2022/07/12 01:08:10;;;;;;;6.82;2.80;;;;;;;;;;5023955;28;20026;-74
2022/07/12 01:10:37;;;;;;;3.58;2.58;;;;;;;;;;5035173;28;20041;-74
2022/07/12 01:13:03;;;;;;;3.72;2.50;;;;;;;;;;5035015;28;20444;-74
2022/07/12 01:15:29;;;;;;;5.13;2.80;;;;;;;;;;5034885;28;20100;-74
2022/07/12 01:17:56;;;;;;;4.65;3.40;;;;;;;;;;5025794;28;20096;-74
2022/07/12 01:20:23;;;;;;;6.30;3.90;;;;;;;;;;5015190;28;20018;-74
2022/07/12 01:22:53;;;;;;;4.47;3.33;;;;;;;;;;5015218;28;20033;-74
2022/07/12 01:25:19;;;;;;;3.70;2.85;;;;;;;;;;5015065;28;20061;-74
2022/07/12 01:27:45;;;;;;;6.43;3.70;;;;;;;;;;5030221;28;20060;-74
2022/07/12 01:30:12;;;;;;;3.85;3.40;;;;;;;;;;5014904;28;20503;-74
2022/07/12 01:32:39;;;;;;;4.82;3.90;;;;;;;;;;5014678;28;20045;-74
2022/07/12 01:35:06;;;;;;;4.53;3.20;;;;;;;;;;5014845;28;20018;-74
2022/07/12 01:37:34;;;;;;;4.72;3.40;;;;;;;;;;5014916;28;20097;-74
2022/07/12 01:40:01;;;;;;;3.97;3.03;;;;;;;;;;5014801;28;20100;-74
2022/07/12 01:42:28;;;;;;;3.42;2.60;;;;;;;;;;5014851;28;20029;-74
2022/07/12 01:44:54;;;;;;;3.72;3.10;;;;;;;;;;5014534;28;20018;-74
2022/07/12 01:47:21;;;;;;;4.72;3.15;;;;;;;;;;5014612;28;20080;-74
2022/07/12 01:49:47;;;;;;;3.65;3.25;;;;;;;;;;5014518;28;20030;-74
2022/07/12 01:52:13;;;;;;;4.30;2.65;;;;;;;;;;5014539;28;20018;-74
2022/07/12 01:54:40;;;;;;;6.97;2.80;;;;;;;;;;5014398;28;20038;-74
2022/07/12 01:57:06;;;;;;;3.45;2.70;;;;;;;;;;5014526;28;20156;-74
2022/07/12 01:59:32;;;;;;;6.38;2.85;;;;;;;;;;5013563;28;20048;-74
2022/07/12 02:01:59;;;;;;;3.05;2.45;;;;;;;;;;5014302;28;20449;-74
2022/07/12 02:04:25;;;;;;;3.97;2.72;;;;;;;;;;5014295;28;20033;-74
2022/07/12 02:06:51;;;;;;;7.50;3.47;;;;;;;;;;5014156;28;20030;-73
2022/07/12 02:09:17;;;;;;;4.38;2.58;;;;;;;;;;5031773;28;20117;-74
2022/07/12 02:11:45;;;;;;;6.30;3.75;;;;;;;;;;5033987;28;20026;-74
2022/07/12 02:14:14;;;;;;;3.50;2.50;;;;;;;;;;5033819;28;20033;-74
2022/07/12 02:16:41;;;;;;;3.67;2.20;;;;;;;;;;5032325;28;20415;-74
2022/07/12 02:19:07;;;;;;;2.75;2.25;;;;;;;;;;5014553;28;20026;-74
2022/07/12 02:21:33;;;;;;;4.60;2.80;;;;;;;;;;5013676;28;20037;-74
2022/07/12 02:23:59;;;;;;;4.05;2.58;;;;;;;;;;5014012;28;20037;-74
2022/07/12 02:26:25;;;;;;;3.60;2.30;;;;;;;;;;5013795;28;20117;-74
2022/07/12 02:28:52;;;;;;;4.35;2.47;;;;;;;;;;5014005;28;20018;-74
2022/07/12 02:31:18;;;;;;;3.70;2.50;;;;;;;;;;5013439;28;20050;-74
2022/07/12 02:33:44;;;;;;;3.42;2.60;;;;;;;;;;5013514;28;20133;-74
2022/07/12 02:36:10;;;;;;;3.58;2.70;;;;;;;;;;5013563;28;20030;-74
2022/07/12 02:38:36;;;;;;;3.03;2.40;;;;;;;;;;5013654;28;20037;-74
2022/07/12 02:41:02;;;;;;;6.35;2.65;;;;;;;;;;5013449;28;20029;-74
2022/07/12 02:43:29;;;;;;;3.08;2.40;;;;;;;;;;5013700;28;20030;-74
2022/07/12 02:45:56;;;;;;;4.47;2.35;;;;;;;;;;5011754;28;20117;-74
2022/07/12 02:48:22;;;;;;;3.38;2.40;;;;;;;;;;5013449;28;20030;-74
2022/07/12 02:50:48;;;;;;;4.55;2.67;;;;;;;;;;5013216;28;20108;-74
2022/07/12 02:53:15;;;;;;;4.57;2.72;;;;;;;;;;5013468;28;20042;-74
2022/07/12 02:55:41;;;;;;;5.22;2.80;;;;;;;;;;5013265;28;20029;-74
2022/07/12 02:58:11;;;;;;;3.45;2.40;;;;;;;;;;5013391;28;20376;-74
2022/07/12 03:00:38;;;;;;;3.60;2.83;;;;;;;;;;5013036;28;20022;-74
2022/07/12 03:03:07;;;;;;;4.22;2.72;;;;;;;;;;5013292;28;20041;-74
2022/07/12 03:05:34;;;;;;;4.18;2.92;;;;;;;;;;5012991;28;20109;-74
2022/07/12 03:08:00;;;;;;;6.38;2.40;;;;;;;;;;5020530;28;20028;-74
2022/07/12 03:10:26;;;;;;;3.22;2.78;;;;;;;;;;5032723;28;20072;-74
2022/07/12 03:12:52;;;;;;;3.38;2.53;;;;;;;;;;5032643;28;20068;-74
2022/07/12 03:15:18;;;;;;;5.07;2.45;;;;;;;;;;5032507;28;20124;-74
2022/07/12 03:17:44;;;;;;;5.22;3.00;;;;;;;;;;5024924;28;20033;-74
2022/07/12 03:20:11;;;;;;;5.43;2.75;;;;;;;;;;5012800;28;20053;-74
2022/07/12 03:22:38;;;;;;;3.80;3.10;;;;;;;;;;5012966;28;20025;-74
2022/07/12 03:25:04;;;;;;;3.95;2.60;;;;;;;;;;5012940;28;20032;-74
2022/07/12 03:27:31;;;;;;;4.63;2.72;;;;;;;;;;5012804;28;20030;-74
2022/07/12 03:29:57;;;;;;;6.55;3.47;;;;;;;;;;5012728;28;20105;-74
2022/07/12 03:32:24;;;;;;;4.15;3.10;;;;;;;;;;5012405;28;20091;-74
2022/07/12 03:34:50;;;;;;;6.65;2.88;;;;;;;;;;5012567;28;20136;-74
2022/07/12 03:37:16;;;;;;;5.72;3.20;;;;;;;;;;5012823;28;20026;-74
2022/07/12 03:39:42;;;;;;;4.78;3.33;;;;;;;;;;5012681;28;20025;-74
2022/07/12 03:42:08;;;;;;;5.30;3.00;;;;;;;;;;5012681;28;20026;-74
2022/07/12 03:44:34;;;;;;;3.85;3.10;;;;;;;;;;5012687;28;20047;-74
2022/07/12 03:47:01;;;;;;;5.50;2.95;;;;;;;;;;5012616;28;20833;-74
2022/07/12 03:49:27;;;;;;;4.53;3.35;;;;;;;;;;5027628;28;20037;-74
2022/07/12 03:51:53;;;;;;;3.75;3.20;;;;;;;;;;5012487;28;20030;-74
2022/07/12 03:54:19;;;;;;;4.97;3.30;;;;;;;;;;5027364;28;20034;-74
2022/07/12 03:59:30;;;;;;;5.28;3.80;;;;;;;;;;5012283;28;20056;-75
2022/07/12 04:01:56;;;;;;;4.55;3.42;;;;;;;;;;5012095;28;20059;-75
2022/07/12 04:04:22;;;;;;;6.82;3.65;;;;;;;;;;5012267;28;20030;-75
2022/07/12 04:06:48;;;;;;;6.00;3.55;;;;;;;;;;5012055;28;20045;-75
2022/07/12 04:09:14;;;;;;;6.72;4.38;;;;;;;;;;5029396;28;20025;-75
2022/07/12 04:11:40;;;;;;;7.40;4.82;;;;;;;;;;5031769;28;20083;-75
2022/07/12 04:14:06;;;;;;;8.57;4.47;;;;;;;;;;5031662;28;20116;-75
2022/07/12 04:16:32;;;;;;;7.25;4.65;;;;;;;;;;5030191;28;20029;-75
2022/07/12 04:18:59;;;;;;;8.02;5.85;;;;;;;;;;5012370;28;20037;-75
2022/07/12 04:21:25;;;;;;;6.53;4.43;;;;;;;;;;5012158;28;20026;-75
2022/07/12 04:23:51;;;;;;;6.50;4.35;;;;;;;;;;5016246;28;20030;-75
2022/07/12 04:26:17;;;;;;;9.32;5.30;;;;;;;;;;5015980;28;20033;-75
2022/07/12 04:28:43;;;;;;;7.82;5.25;;;;;;;;;;5016126;28;20029;-75
2022/07/12 04:31:12;;;;;;;7.72;4.63;;;;;;;;;;5015672;28;20061;-74
2022/07/12 04:33:38;;;;;;;6.88;4.55;;;;;;;;;;5015826;28;20089;-75
2022/07/12 04:36:04;;;;;;;6.43;4.05;;;;;;;;;;5015753;28;20415;-75
2022/07/12 04:38:30;;;;;;;10.80;3.42;;;;;;;;;;5015931;28;20472;-75
2022/07/12 04:40:56;;;;;;;6.93;4.10;;;;;;;;;;5014398;28;20030;-75
2022/07/12 04:43:24;;;;;;;6.95;4.07;;;;;;;;;;5015801;28;20045;-75
2022/07/12 04:45:50;;;;;;;14.85;4.72;;;;;;;;;;5015490;28;20474;-75
2022/07/12 04:48:16;;;;;;;11.57;4.10;;;;;;;;;;5030933;28;20030;-75
2022/07/12 04:50:42;;;;;;;8.32;4.68;;;;;;;;;;5015445;28;20033;-75
2022/07/12 04:53:08;;;;;;;8.73;5.18;;;;;;;;;;5015613;28;20133;-75
2022/07/12 04:55:34;;;;;;;10.95;5.70;;;;;;;;;;5015509;28;20111;-75
2022/07/12 04:58:00;;;;;;;7.30;5.07;;;;;;;;;;5015485;28;20056;-75
2022/07/12 05:00:26;;;;;;;6.53;4.65;;;;;;;;;;5015362;28;20022;-75
2022/07/12 05:02:53;;;;;;;7.68;4.88;;;;;;;;;;5015524;28;20049;-75
2022/07/12 05:05:19;;;;;;;8.30;4.97;;;;;;;;;;5015250;28;20041;-75
2022/07/12 05:07:46;;;;;;;6.70;5.82;;;;;;;;;;5020633;28;20033;-75
2022/07/12 05:10:12;;;;;;;8.40;6.65;;;;;;;;;;5034998;28;20424;-75
2022/07/12 05:12:38;;;;;;;8.80;6.95;;;;;;;;;;5034933;28;20033;-75
2022/07/12 05:15:05;;;;;;;7.55;5.93;;;;;;;;;;5034800;28;20441;-75
2022/07/12 05:17:31;;;;;;;6.97;6.10;;;;;;;;;;5028910;28;20100;-75
2022/07/12 05:19:57;;;;;;;9.93;5.20;;;;;;;;;;5015092;28;20022;-75
2022/07/12 05:22:23;;;;;;;7.53;5.00;;;;;;;;;;5014979;28;20460;-75
2022/07/12 05:24:49;;;;;;;8.70;6.03;;;;;;;;;;5014996;28;20388;-75
2022/07/12 05:27:15;;;;;;;8.13;6.07;;;;;;;;;;5015021;28;20030;-75
2022/07/12 05:29:41;;;;;;;9.07;6.00;;;;;;;;;;5013484;28;20034;-75
2022/07/12 05:32:08;;;;;;;11.52;6.63;;;;;;;;;;5014579;28;20046;-75
2022/07/12 05:34:34;;;;;;;13.68;6.95;;;;;;;;;;5013433;28;20033;-75
2022/07/12 05:37:00;;;;;;;7.63;6.03;;;;;;;;;;5014629;28;20384;-75
2022/07/12 05:39:26;;;;;;;9.60;7.43;;;;;;;;;;5014815;28;20017;-75
2022/07/12 05:41:52;;;;;;;17.42;7.38;;;;;;;;;;5014728;28;20379;-75
2022/07/12 05:44:19;;;;;;;10.98;7.55;;;;;;;;;;5013337;28;20464;-75
2022/07/12 05:46:45;;;;;;;10.57;6.82;;;;;;;;;;5014356;28;20064;-75
2022/07/12 05:49:11;;;;;;;8.73;6.65;;;;;;;;;;5014566;28;20040;-75
2022/07/12 05:54:22;;;;;;;9.02;6.68;;;;;;;;;;5014452;28;20044;-75
2022/07/12 05:56:48;;;;;;;9.98;6.53;;;;;;;;;;5014441;28;20113;-75
2022/07/12 05:59:14;;;;;;;7.75;6.85;;;;;;;;;;5014458;28;20586;-75
2022/07/12 06:01:40;;;;;;;12.40;6.97;;;;;;;;;;5014281;28;20425;-75
2022/07/12 06:04:07;;;;;;;11.50;6.90;;;;;;;;;;5014415;28;20033;-75
2022/07/12 06:06:33;;;;;;;10.80;7.28;;;;;;;;;;5014062;28;20033;-75
2022/07/12 06:08:59;;;;;;;14.48;7.15;;;;;;;;;;5029363;28;20041;-76
2022/07/12 06:11:25;;;;;;;8.57;6.78;;;;;;;;;;5033678;28;20492;-75
2022/07/12 06:13:51;;;;;;;8.38;6.63;;;;;;;;;;5033826;28;20087;-75
2022/07/12 06:16:18;;;;;;;10.68;7.50;;;;;;;;;;5033705;28;20025;-75
2022/07/12 06:18:44;;;;;;;7.72;6.53;;;;;;;;;;5017799;28;20479;-76
2022/07/12 06:21:10;;;;;;;10.70;6.43;;;;;;;;;;5013683;28;20040;-75
2022/07/12 06:23:36;;;;;;;10.90;7.00;;;;;;;;;;5013844;28;20021;-75
2022/07/12 06:26:02;;;;;;;12.32;7.00;;;;;;;;;;5013832;28;20068;-75
2022/07/12 06:28:28;;;;;;;11.70;6.70;;;;;;;;;;5013919;28;20033;-75
2022/07/12 06:30:54;;;;;;;11.65;6.35;;;;;;;;;;5013515;28;20026;-75
2022/07/12 06:33:20;;;;;;;11.52;6.43;;;;;;;;;;5013574;28;20033;-75
2022/07/12 06:35:46;;;;;;;8.20;6.25;;;;;;;;;;5013458;28;20029;-75
2022/07/12 06:38:12;;;;;;;9.57;5.93;;;;;;;;;;5013526;28;20033;-75
2022/07/12 06:40:38;;;;;;;9.32;5.22;;;;;;;;;;5013523;28;20722;-76
2022/07/12 06:43:09;;;;;;;10.43;4.95;;;;;;;;;;5013575;28;20108;-75
2022/07/12 06:45:35;;;;;;;6.45;4.82;;;;;;;;;;5012797;28;20033;-75
2022/07/12 06:48:01;;;;;;;6.57;5.05;;;;;;;;;;5013557;28;20384;-75
2022/07/12 06:50:27;;;;;;;7.78;4.13;;;;;;;;;;5013115;28;20483;-75
2022/07/12 06:52:53;;;;;;;6.15;4.07;;;;;;;;;;5013363;28;20034;-75
2022/07/12 06:55:19;;;;;;;5.00;3.55;;;;;;;;;;5013296;28;20038;-75
2022/07/12 06:57:45;;;;;;;4.25;3.53;;;;;;;;;;5013349;28;20072;-75
2022/07/12 07:00:11;;;;;;;4.15;3.40;;;;;;;;;;5013051;28;20026;-75
2022/07/12 07:02:40;;;;;;;4.22;3.80;;;;;;;;;;5013244;28;20042;-75
2022/07/12 07:05:07;;;;;;;7.65;4.32;;;;;;;;;;5012876;28;20488;-76
2022/07/12 07:07:33;;;;;;;4.75;3.60;;;;;;;;;;5016569;28;20045;-76
2022/07/12 07:09:59;;;;;;;5.22;3.83;;;;;;;;;;5032742;28;20108;-75
2022/07/12 07:12:25;;;;;;;5.60;3.67;;;;;;;;;;5032799;28;20122;-75
2022/07/12 07:14:51;;;;;;;7.13;3.67;;;;;;;;;;5032538;28;20026;-75
2022/07/12 07:17:19;;;;;;;4.93;4.00;;;;;;;;;;5028481;28;20049;-75
2022/07/12 07:19:45;;;;;;;6.15;3.95;;;;;;;;;;5012850;28;20065;-75
2022/07/12 07:22:11;;;;;;;9.52;3.88;;;;;;;;;;5012759;28;20049;-76
2022/07/12 07:24:37;;;;;;;6.63;3.95;;;;;;;;;;5012719;28;20034;-75
2022/07/12 07:27:03;;;;;;;6.32;4.22;;;;;;;;;;5012783;28;20033;-75
2022/07/12 07:32:14;;;;;;;8.32;4.82;;;;;;;;;;5012134;28;20072;-75
2022/07/12 07:34:41;;;;;;;8.60;5.03;;;;;;;;;;5012419;28;20433;-75
2022/07/12 07:37:07;;;;;;;6.80;4.70;;;;;;;;;;5012494;28;20461;-75
2022/07/12 07:39:34;;;;;;;7.80;4.55;;;;;;;;;;5012472;28;20109;-75
2022/07/12 07:42:00;;;;;;;11.18;4.95;;;;;;;;;;5012529;28;20500;-75
2022/07/12 07:44:26;;;;;;;7.72;4.60;;;;;;;;;;5012534;28;20045;-76
2022/07/12 07:46:52;;;;;;;5.85;4.70;;;;;;;;;;5012010;28;20444;-75
2022/07/12 07:49:18;;;;;;;5.05;4.18;;;;;;;;;;5012456;28;20044;-76
2022/07/12 07:51:44;;;;;;;8.68;5.18;;;;;;;;;;5012243;28;20194;-75
2022/07/12 07:54:10;;;;;;;6.95;5.45;;;;;;;;;;5012316;28;20065;-76
2022/07/12 07:56:36;;;;;;;7.68;5.00;;;;;;;;;;5011558;28;20053;-75
2022/07/12 07:59:02;;;;;;;7.35;5.38;;;;;;;;;;5012253;28;20053;-75
2022/07/12 08:01:44;;;;;;;7.45;5.40;;;;;;;;;;5012119;28;20037;-76
2022/07/12 08:04:14;;;;;;;8.52;6.03;;;;;;;;;;5012269;28;20164;-76
2022/07/12 08:06:40;;;;;;;8.98;5.22;;;;;;;;;;5011994;28;20052;-75
2022/07/12 08:09:06;;;;;;;7.60;5.53;;;;;;;;;;5026903;28;20030;-75
2022/07/12 08:11:32;;;;;;;5.65;4.93;;;;;;;;;;5031776;28;20416;-76
2022/07/12 08:13:59;;;;;;;5.45;4.85;;;;;;;;;;5031706;28;20029;-76
2022/07/12 08:16:25;;;;;;;7.53;5.25;;;;;;;;;;5031573;28;20105;-76
2022/07/12 08:18:51;;;;;;;9.77;5.32;;;;;;;;;;5015082;28;20022;-75
2022/07/12 08:21:17;;;;;;;6.40;5.22;;;;;;;;;;5011824;28;20101;-75
2022/07/12 08:23:43;;;;;;;10.05;5.18;;;;;;;;;;5012023;28;20048;-75
2022/07/12 08:26:09;;;;;;;5.65;4.47;;;;;;;;;;5011914;28;20034;-75
2022/07/12 08:28:35;;;;;;;11.57;5.20;;;;;;;;;;5011956;28;20097;-75
2022/07/12 08:31:01;;;;;;;8.68;5.32;;;;;;;;;;5011611;28;20049;-75
2022/07/12 08:33:27;;;;;;;9.60;4.97;;;;;;;;;;5011844;28;20045;-75
2022/07/12 08:35:53;;;;;;;6.55;4.07;;;;;;;;;;5011748;28;20026;-75
2022/07/12 08:38:20;;;;;;;7.63;4.05;;;;;;;;;;5011877;28;20377;-75
2022/07/12 08:40:46;;;;;;;8.40;4.32;;;;;;;;;;5011711;28;20021;-75
2022/07/12 08:43:12;;;;;;;6.32;3.88;;;;;;;;;;5011926;28;20026;-75
2022/07/12 08:45:40;;;;;;;4.70;3.70;;;;;;;;;;5011516;28;20022;-75
2022/07/12 08:48:07;;;;;;;6.10;3.42;;;;;;;;;;5011817;28;20388;-75
2022/07/12 08:50:33;;;;;;;6.78;3.30;;;;;;;;;;5011574;28;20514;-75
2022/07/12 08:52:59;;;;;;;5.70;3.80;;;;;;;;;;5011734;28;20447;-75
2022/07/12 08:55:26;;;;;;;8.43;3.42;;;;;;;;;;5011665;28;20034;-76
2022/07/12 08:57:54;;;;;;;5.93;2.92;;;;;;;;;;5010409;28;20049;-75
2022/07/12 09:00:20;;;;;;;4.80;3.80;;;;;;;;;;5011497;28;20439;-75
2022/07/12 09:02:48;;;;;;;3.75;2.88;;;;;;;;;;5011700;28;20057;-75
2022/07/12 09:05:14;;;;;;;7.20;3.40;;;;;;;;;;5011436;28;20524;-75
2022/07/12 09:07:40;;;;;;;4.68;3.70;;;;;;;;;;5016763;28;20053;-75
2022/07/12 09:10:08;;;;;;;4.60;3.03;;;;;;;;;;5034995;28;20032;-75
2022/07/12 09:12:37;;;;;;;4.47;3.10;;;;;;;;;;5034959;28;20034;-75
2022/07/12 09:15:17;;;;;;;3.58;3.15;;;;;;;;;;5034682;28;20044;-75
2022/07/12 09:18:03;;;;;;;2.80;2.53;;;;;;;;;;5027465;28;20466;-75
2022/07/12 09:20:31;;;;;;;5.88;2.22;;;;;;;;;;5014710;28;20104;-75
2022/07/12 09:22:58;;;;;;;4.80;1.90;;;;;;;;;;5015136;28;20033;-75
2022/07/12 09:25:24;;;;;;;4.65;1.73;;;;;;;;;;5014849;28;20033;-75
2022/07/12 09:27:51;;;;;;;2.20;1.70;;;;;;;;;;5015049;28;20417;-75
2022/07/12 09:30:17;;;;;;;2.35;1.30;;;;;;;;;;5014725;28;20492;-75
2022/07/12 09:38:25;;;;;;;4.63;3.40;;;;;;;;;;5014735;28;20120;-75
2022/07/12 09:40:52;;;;;;;4.35;2.70;;;;;;;;;;5014672;28;20026;-75
2022/07/12 09:43:18;;;;;;;4.18;2.50;;;;;;;;;;5014803;28;20405;-75
2022/07/12 09:45:47;;;;;;;3.28;2.60;;;;;;;;;;5014285;28;20021;-75
2022/07/12 09:48:13;;;;;;;5.68;2.45;;;;;;;;;;5014538;28;20022;-75
2022/07/12 09:50:39;;;;;;;6.40;3.10;;;;;;;;;;5014350;28;20037;-75
2022/07/12 09:53:06;;;;;;;3.92;2.28;;;;;;;;;;5014325;28;20034;-75
2022/07/12 09:55:33;;;;;;;4.05;2.85;;;;;;;;;;5014419;28;20072;-76
2022/07/12 09:58:01;;;;;;;4.93;2.85;;;;;;;;;;5013009;28;20025;-75
2022/07/12 10:00:27;;;;;;;2.85;2.00;;;;;;;;;;5013971;28;20026;-75
2022/07/12 10:02:55;;;;;;;2.25;1.45;;;;;;;;;;5014386;28;20026;-75
2022/07/12 10:05:21;;;;;;;6.53;4.20;;;;;;;;;;5014090;28;20456;-75
2022/07/12 10:07:48;;;;;;;4.82;3.90;;;;;;;;;;5019584;28;20467;-75
2022/07/12 10:10:14;;;;;;;5.97;4.07;;;;;;;;;;5033784;28;20029;-75
2022/07/12 10:12:41;;;;;;;4.20;3.70;;;;;;;;;;5032403;28;20127;-75
2022/07/12 10:15:10;;;;;;;6.40;3.65;;;;;;;;;;5033621;28;20091;-75
2022/07/12 10:17:36;;;;;;;5.70;2.67;;;;;;;;;;5027308;28;20022;-75
2022/07/12 10:20:19;;;;;;;6.07;3.30;;;;;;;;;;5013029;28;20121;-75
2022/07/12 10:22:45;;;;;;;4.03;2.40;;;;;;;;;;5014080;28;20037;-75
2022/07/12 10:25:44;;;;;;;9.13;3.58;;;;;;;;;;5013772;28;20040;-75
2022/07/12 10:28:09;;;;;;;4.85;3.40;;;;;;;;;;4991933;28;20049;-75
2022/07/12 10:30:43;;;;;;;2.42;2.10;;;;;;;;;;4991644;28;20105;-76
2022/07/12 10:33:29;;;;;;;4.57;3.22;;;;;;;;;;4991657;28;20109;-75
2022/07/12 10:36:03;;;;;;;8.27;3.30;;;;;;;;;;4991615;28;20034;-75
2022/07/12 10:38:29;;;;;;;5.05;2.80;;;;;;;;;;4991621;28;20042;-76
2022/07/12 10:40:55;;;;;;;6.43;2.92;;;;;;;;;;4991588;28;20032;-75
2022/07/12 10:46:18;;;;;;;5.63;2.55;;;;;;;;;;4991201;28;20104;-75
2022/07/12 10:48:45;;;;;;;2.63;2.13;;;;;;;;;;4991621;28;20034;-75
2022/07/12 10:51:19;;;;;;;4.40;1.88;;;;;;;;;;4991168;28;20065;-75
2022/07/12 10:53:48;;;;;;;4.82;2.42;;;;;;;;;;4991483;28;20381;-75
2022/07/12 10:56:17;;;;;;;3.20;2.83;;;;;;;;;;4991300;28;20049;-75
2022/07/12 10:58:44;;;;;;;7.10;3.05;;;;;;;;;;4991435;28;20022;-75
2022/07/12 11:01:11;;;;;;;3.72;2.92;;;;;;;;;;4974880;28;20026;-75
2022/07/12 11:03:46;;;;;;;3.03;2.42;;;;;;;;;;5001271;28;20034;-75
2022/07/12 11:06:17;;;;;;;5.70;4.15;;;;;;;;;;5012923;28;20029;-75
2022/07/12 11:08:47;;;;;;;3.53;2.45;;;;;;;;;;5026080;28;20022;-75
2022/07/12 11:11:13;;;;;;;4.53;2.92;;;;;;;;;;5031380;28;20083;-75
2022/07/12 11:13:39;;;;;;;3.65;2.00;;;;;;;;;;5032606;28;20243;-75
2022/07/12 11:16:05;;;;;;;2.97;1.35;;;;;;;;;;5032493;28;20025;-75
2022/07/12 11:18:32;;;;;;;10.73;1.60;;;;;;;;;;5018557;28;20472;-75
2022/07/12 11:20:59;;;;;;;3.90;2.53;;;;;;;;;;5012737;28;20101;-75
2022/07/12 11:23:28;;;;;;;2.83;2.63;;;;;;;;;;5012802;28;20121;-75
2022/07/12 11:25:59;;;;;;;3.15;2.30;;;;;;;;;;5013031;28;20469;-75
2022/07/12 11:28:26;;;;;;;4.80;2.63;;;;;;;;;;5012909;28;20046;-75
2022/07/12 11:30:52;;;;;;;4.20;2.90;;;;;;;;;;5012411;28;20083;-75
2022/07/12 11:33:19;;;;;;;7.18;3.35;;;;;;;;;;5012596;28;20034;-75
2022/07/12 11:35:45;;;;;;;5.75;2.75;;;;;;;;;;5012512;28;20535;-75
2022/07/12 11:38:11;;;;;;;5.03;3.15;;;;;;;;;;5012587;28;20013;-75
2022/07/12 11:40:37;;;;;;;4.40;3.00;;;;;;;;;;5012466;28;20108;-75
2022/07/12 11:43:04;;;;;;;9.38;3.53;;;;;;;;;;5012642;28;20029;-75
2022/07/12 11:45:32;;;;;;;6.43;3.55;;;;;;;;;;5012142;28;20018;-75
2022/07/12 11:47:59;;;;;;;4.45;4.05;;;;;;;;;;5012544;28;20049;-75
2022/07/12 11:50:25;;;;;;;3.95;3.55;;;;;;;;;;5012179;28;20021;-75
2022/07/12 11:52:51;;;;;;;5.03;3.30;;;;;;;;;;5012274;28;20080;-75
2022/07/12 11:55:17;;;;;;;6.25;4.10;;;;;;;;;;5012291;28;20053;-75
2022/07/12 11:57:44;;;;;;;4.65;3.55;;;;;;;;;;5012332;28;20099;-75
2022/07/12 12:00:16;;;;;;;5.80;4.03;;;;;;;;;;5012154;28;20048;-75
2022/07/12 12:02:42;;;;;;;5.63;2.80;;;;;;;;;;5012378;28;20025;-75
2022/07/12 12:05:08;;;;;;;3.28;2.20;;;;;;;;;;5012074;28;20072;-75
2022/07/12 12:07:35;;;;;;;2.50;1.85;;;;;;;;;;5015805;28;20021;-75
2022/07/12 12:10:01;;;;;;;2.92;2.03;;;;;;;;;;5031718;28;20034;-75
2022/07/12 12:12:28;;;;;;;3.78;1.40;;;;;;;;;;5031819;28;20044;-75
2022/07/12 12:14:54;;;;;;;1.80;1.30;;;;;;;;;;5031670;28;20120;-76
2022/07/12 12:17:20;;;;;;;2.40;1.88;;;;;;;;;;5027400;28;20022;-75
2022/07/12 12:19:46;;;;;;;8.60;2.28;;;;;;;;;;5012033;28;20026;-75
2022/07/12 12:22:31;;;;;;;3.13;2.20;;;;;;;;;;5011925;28;20084;-75
2022/07/12 12:24:58;;;;;;;4.82;2.97;;;;;;;;;;5010592;28;20416;-75
2022/07/12 12:27:24;;;;;;;4.63;1.67;;;;;;;;;;5012043;28;20030;-75
2022/07/12 12:29:51;;;;;;;2.88;1.77;;;;;;;;;;5011895;28;20038;-76
2022/07/12 12:32:18;;;;;;;2.03;1.48;;;;;;;;;;5011601;28;20045;-75
2022/07/12 12:35:02;;;;;;;2.65;1.60;;;;;;;;;;5011841;28;20025;-75
2022/07/12 12:37:28;;;;;;;4.57;2.28;;;;;;;;;;5011867;28;20348;-75
2022/07/12 12:39:55;;;;;;;4.53;2.40;;;;;;;;;;5011831;28;20060;-75
2022/07/12 12:42:24;;;;;;;6.18;2.40;;;;;;;;;;5012009;28;20100;-75
2022/07/12 12:44:51;;;;;;;3.08;2.38;;;;;;;;;;5015521;28;20488;-76
2022/07/12 12:47:33;;;;;;;4.50;2.40;;;;;;;;;;5015678;28;20038;-76
2022/07/12 12:50:00;;;;;;;4.32;2.30;;;;;;;;;;5015471;28;20073;-76
2022/07/12 12:52:26;;;;;;;5.13;2.10;;;;;;;;;;5015636;28;20017;-75
2022/07/12 12:54:52;;;;;;;3.80;1.88;;;;;;;;;;5015441;28;20033;-75
2022/07/12 12:57:19;;;;;;;2.53;2.10;;;;;;;;;;5015490;28;20124;-76
2022/07/12 12:59:45;;;;;;;6.63;2.00;;;;;;;;;;5015376;28;20022;-76
2022/07/12 13:02:12;;;;;;;2.55;1.52;;;;;;;;;;5015238;28;20022;-76
2022/07/12 13:04:38;;;;;;;4.10;1.58;;;;;;;;;;5015145;28;20022;-76
2022/07/12 13:07:08;;;;;;;3.10;1.55;;;;;;;;;;5015082;28;20109;-75
2022/07/12 13:09:34;;;;;;;3.22;1.92;;;;;;;;;;4995529;28;20030;-76
2022/07/12 13:12:00;;;;;;;4.18;2.78;;;;;;;;;;4995424;28;20041;-76
2022/07/12 13:14:27;;;;;;;6.30;2.85;;;;;;;;;;4995509;28;20051;-76
2022/07/12 13:16:53;;;;;;;2.88;2.10;;;;;;;;;;4995655;28;20092;-76
2022/07/12 13:19:20;;;;;;;4.57;2.05;;;;;;;;;;5015011;28;20389;-75
2022/07/12 13:21:46;;;;;;;6.68;3.10;;;;;;;;;;5014825;28;20026;-76
2022/07/12 13:24:12;;;;;;;3.80;2.38;;;;;;;;;;5014876;28;20033;-76
2022/07/12 13:26:38;;;;;;;3.75;2.10;;;;;;;;;;5014759;28;20032;-76
2022/07/12 13:29:04;;;;;;;4.78;2.13;;;;;;;;;;5014873;28;20037;-76
2022/07/12 13:31:30;;;;;;;4.40;1.90;;;;;;;;;;5014538;28;20054;-75
2022/07/12 13:33:56;;;;;;;3.38;1.75;;;;;;;;;;5014650;28;20034;-76
2022/07/12 13:36:22;;;;;;;1.98;1.65;;;;;;;;;;5014502;28;20030;-76
2022/07/12 13:38:49;;;;;;;8.10;1.83;;;;;;;;;;5014732;28;20457;-76
2022/07/12 13:41:16;;;;;;;2.65;1.42;;;;;;;;;;5014517;28;20021;-76
2022/07/12 13:43:42;;;;;;;3.17;2.20;;;;;;;;;;5014660;28;20030;-75
2022/07/12 13:46:08;;;;;;;3.92;1.95;;;;;;;;;;5012518;28;20018;-76
2022/07/12 13:48:34;;;;;;;3.20;1.63;;;;;;;;;;5013665;28;20072;-75
2022/07/12 13:51:00;;;;;;;1.60;1.20;;;;;;;;;;5013590;28;20039;-76
2022/07/12 13:53:26;;;;;;;3.88;1.23;;;;;;;;;;5014630;28;20025;-77
2022/07/12 13:55:52;;;;;;;3.28;1.40;;;;;;;;;;5013304;28;20029;-79
2022/07/12 13:58:18;;;;;;;2.90;1.50;;;;;;;;;;5014968;28;20022;-78
2022/07/12 14:00:44;;;;;;;3.35;1.15;;;;;;;;;;5014110;28;20026;-78
2022/07/12 14:03:10;;;;;;;3.13;1.40;;;;;;;;;;5014538;28;20084;-76
2022/07/12 14:05:39;;;;;;;1.98;1.13;;;;;;;;;;5013970;28;20018;-75
2022/07/12 14:08:05;;;;;;;2.90;1.25;;;;;;;;;;5021563;28;20101;-75
2022/07/12 14:10:33;;;;;;;3.35;1.70;;;;;;;;;;5033085;28;20053;-75
2022/07/12 14:12:59;;;;;;;7.15;1.73;;;;;;;;;;5032786;28;20018;-76
2022/07/12 14:15:37;;;;;;;9.50;1.60;;;;;;;;;;5033188;28;20053;-75
2022/07/12 14:18:07;;;;;;;5.55;1.30;;;;;;;;;;5022684;28;20060;-75
2022/07/12 14:20:34;;;;;;;1.80;1.17;;;;;;;;;;5003982;28;20018;-75
2022/07/12 14:23:01;;;;;;;5.00;1.35;;;;;;;;;;5004218;28;20054;-75
2022/07/12 14:25:27;;;;;;;7.15;1.30;;;;;;;;;;5003020;28;20022;-75
2022/07/12 14:27:53;;;;;;;2.65;1.50;;;;;;;;;;5002922;28;20073;-75
2022/07/12 14:30:19;;;;;;;2.28;1.40;;;;;;;;;;5003591;28;20029;-75
2022/07/12 14:32:45;;;;;;;4.22;1.50;;;;;;;;;;5002003;28;20050;-75
2022/07/12 14:35:11;;;;;;;1.73;1.33;;;;;;;;;;5004246;28;20464;-75
2022/07/12 14:37:37;;;;;;;4.43;1.38;;;;;;;;;;5001894;28;20483;-75
2022/07/12 14:40:04;;;;;;;7.90;2.33;;;;;;;;;;5003879;28;20076;-75
2022/07/12 14:42:30;;;;;;;6.72;1.50;;;;;;;;;;5002467;28;20026;-75
2022/07/12 14:44:56;;;;;;;6.20;1.38;;;;;;;;;;5004984;28;20022;-75
2022/07/12 14:47:23;;;;;;;7.40;1.55;;;;;;;;;;5005172;28;20341;-75
2022/07/12 14:49:49;;;;;;;9.50;1.70;;;;;;;;;;5004369;28;20030;-75
2022/07/12 14:52:16;;;;;;;4.70;1.40;;;;;;;;;;5013072;28;20043;-75
2022/07/12 14:54:42;;;;;;;6.35;2.22;;;;;;;;;;5013258;28;20026;-75
2022/07/12 14:57:08;;;;;;;5.00;1.40;;;;;;;;;;5013327;28;20417;-75
2022/07/12 14:59:34;;;;;;;4.25;1.17;;;;;;;;;;5013221;28;20018;-75